Time;durP1;ratioP1;P1;durP2;ratioP2;P2;SDS_P1;SDS_P2;PMS_P1;PMS_P2;Temp;Humidity;BMP_temperature;BMP_pressure;BME280_temperature;BME280_humidity;BME280_pressure;Samples;Min_cycle;Max_cycle;Signal;HPM_P1;HPM_P2
2022/07/10 00:02:04;;;;;;;4.87;1.83;;;15.90;99.90;;;;;;5044169;28;20195;-81
2022/07/10 00:04:30;;;;;;;4.27;2.67;;;15.90;99.90;;;;;;5043781;28;20270;-82
2022/07/10 00:06:57;;;;;;;3.53;1.80;;;15.90;99.90;;;;;;5042928;28;20426;-81
2022/07/10 00:09:24;;;;;;;2.93;1.80;;;15.80;99.90;;;;;;5043303;28;20204;-81
2022/07/10 00:11:49;;;;;;;4.00;1.60;;;15.80;99.90;;;;;;5042795;28;21161;-81
2022/07/10 00:14:15;;;;;;;2.70;1.80;;;15.90;99.90;;;;;;5041813;28;20517;-81
2022/07/10 00:16:41;;;;;;;2.43;1.50;;;15.90;99.90;;;;;;5041981;28;20190;-77
2022/07/10 00:19:07;;;;;;;4.20;1.97;;;15.80;99.90;;;;;;5041957;28;20203;-80
2022/07/10 00:21:33;;;;;;;2.97;1.50;;;15.80;99.90;;;;;;5041798;28;20184;-80
2022/07/10 00:23:58;;;;;;;3.00;1.80;;;15.80;99.90;;;;;;5040864;28;20199;-81
2022/07/10 00:26:27;;;;;;;3.00;1.63;;;15.70;99.90;;;;;;5041165;28;20349;-81
2022/07/10 00:28:54;;;;;;;3.87;1.63;;;15.60;99.90;;;;;;5041182;28;20258;-79
2022/07/10 00:31:20;;;;;;;3.97;1.90;;;15.60;99.90;;;;;;5040744;28;20469;-81
2022/07/10 00:33:47;;;;;;;3.83;1.47;;;15.60;99.90;;;;;;5040109;28;20946;-81
2022/07/10 00:36:14;;;;;;;3.40;1.77;;;15.50;99.90;;;;;;5040142;28;20437;-79
2022/07/10 00:38:39;;;;;;;3.40;1.77;;;15.50;99.90;;;;;;5039647;28;20557;-81
2022/07/10 00:41:05;;;;;;;6.23;2.10;;;15.50;99.90;;;;;;5039541;28;20802;-81
2022/07/10 00:43:52;;;;;;;2.87;1.70;;;15.40;99.90;;;;;;5041332;28;20490;-80
2022/07/10 00:46:20;;;;;;;4.10;1.93;;;15.50;99.90;;;;;;5041057;28;20184;-81
2022/07/10 00:48:47;;;;;;;3.63;1.80;;;15.40;99.90;;;;;;5042002;28;20531;-80
2022/07/10 00:51:13;;;;;;;3.23;1.60;;;15.40;99.90;;;;;;5041861;28;20470;-80
2022/07/10 00:53:39;;;;;;;5.00;1.67;;;15.40;99.90;;;;;;5041539;28;20472;-81
2022/07/10 00:56:06;;;;;;;4.40;2.03;;;15.40;99.90;;;;;;5041949;28;20426;-81
2022/07/10 00:58:34;;;;;;;4.10;1.53;;;15.40;99.90;;;;;;5041371;28;20438;-80
2022/07/10 01:01:01;;;;;;;5.50;2.10;;;15.40;99.90;;;;;;5040866;28;20456;-80
2022/07/10 01:03:27;;;;;;;4.00;1.73;;;15.40;99.90;;;;;;5041285;28;20426;-80
2022/07/10 01:05:53;;;;;;;3.07;1.33;;;15.50;99.90;;;;;;5041185;28;20429;-80
2022/07/10 01:08:19;;;;;;;8.57;1.60;;;15.50;99.90;;;;;;5040595;28;20203;-80
2022/07/10 01:10:46;;;;;;;3.47;1.60;;;15.50;99.90;;;;;;5040587;28;20211;-80
2022/07/10 01:13:12;;;;;;;8.03;2.03;;;15.50;99.90;;;;;;5040607;28;20548;-80
2022/07/10 01:15:38;;;;;;;5.40;1.90;;;15.60;99.90;;;;;;5039944;28;20422;-81
2022/07/10 01:18:04;;;;;;;3.73;1.77;;;15.60;99.90;;;;;;5039859;28;20200;-81
2022/07/10 01:20:32;;;;;;;3.17;2.23;;;15.70;99.90;;;;;;5040341;28;20434;-81
2022/07/10 01:22:57;;;;;;;3.63;1.80;;;15.60;99.90;;;;;;5040338;28;20242;-80
2022/07/10 01:25:24;;;;;;;4.00;1.70;;;15.60;99.90;;;;;;5040577;28;20426;-80
2022/07/10 01:27:51;;;;;;;5.80;1.93;;;15.70;99.90;;;;;;5039832;28;20212;-81
2022/07/10 01:30:17;;;;;;;5.80;1.60;;;15.60;99.90;;;;;;5039571;28;20474;-80
2022/07/10 01:32:43;;;;;;;3.27;1.63;;;15.60;99.90;;;;;;5039585;28;20422;-80
2022/07/10 01:35:09;;;;;;;5.00;2.10;;;15.60;99.90;;;;;;5039299;28;20418;-81
2022/07/10 01:37:35;;;;;;;4.10;1.30;;;15.70;99.90;;;;;;5039159;28;20199;-79
2022/07/10 01:40:01;;;;;;;5.60;1.77;;;15.70;99.90;;;;;;5039951;28;20436;-80
2022/07/10 01:42:27;;;;;;;9.20;1.90;;;15.70;99.90;;;;;;5039706;28;20564;-78
2022/07/10 01:44:53;;;;;;;2.40;1.40;;;15.60;99.90;;;;;;5039300;28;20430;-78
2022/07/10 01:47:19;;;;;;;4.10;1.50;;;15.60;99.90;;;;;;5038997;28;20242;-77
2022/07/10 01:49:45;;;;;;;3.80;1.73;;;15.70;99.90;;;;;;5039055;28;20489;-79
2022/07/10 01:52:11;;;;;;;7.13;3.37;;;15.70;99.90;;;;;;5038589;28;20180;-78
2022/07/10 01:54:37;;;;;;;4.90;1.50;;;15.80;99.90;;;;;;5038996;28;20214;-78
2022/07/10 01:57:03;;;;;;;5.37;1.80;;;15.90;99.90;;;;;;5038865;28;20812;-79
2022/07/10 01:59:29;;;;;;;2.87;1.60;;;15.90;99.90;;;;;;5038465;28;20665;-78
2022/07/10 02:01:54;;;;;;;6.13;1.60;;;15.90;99.90;;;;;;5038871;28;20445;-79
2022/07/10 02:07:04;;;;;;;4.70;2.50;;;16.00;99.90;;;;;;5055743;28;20210;-79
2022/07/10 02:09:30;;;;;;;4.10;1.70;;;16.00;99.90;;;;;;5037467;28;20461;-78
2022/07/10 02:11:56;;;;;;;3.87;1.67;;;15.90;99.90;;;;;;5037164;28;20179;-77
2022/07/10 02:14:22;;;;;;;4.60;2.03;;;15.90;99.90;;;;;;5038242;28;20176;-77
2022/07/10 02:16:47;;;;;;;8.93;1.77;;;15.80;99.90;;;;;;5037433;28;20207;-78
2022/07/10 02:19:13;;;;;;;4.10;1.63;;;15.80;99.90;;;;;;5038533;28;20661;-78
2022/07/10 02:21:39;;;;;;;4.97;1.87;;;15.80;99.90;;;;;;5037621;28;20183;-78
2022/07/10 02:24:05;;;;;;;6.87;1.70;;;15.70;99.90;;;;;;5037088;28;20180;-79
2022/07/10 02:26:30;;;;;;;3.63;1.90;;;15.80;99.90;;;;;;5037515;28;20187;-77
2022/07/10 02:28:56;;;;;;;4.47;1.57;;;15.90;99.90;;;;;;5036810;28;20449;-78
2022/07/10 02:31:22;;;;;;;4.90;1.40;;;15.80;99.90;;;;;;5042649;28;20218;-78
2022/07/10 02:33:48;;;;;;;4.93;1.60;;;15.80;99.90;;;;;;5042451;28;20185;-79
2022/07/10 02:36:13;;;;;;;5.27;2.07;;;15.90;99.90;;;;;;5042871;28;20211;-78
2022/07/10 02:38:39;;;;;;;6.03;2.23;;;15.90;99.90;;;;;;5042877;28;20229;-78
2022/07/10 02:41:05;;;;;;;3.07;1.60;;;15.80;99.90;;;;;;5041585;28;20255;-78
2022/07/10 02:43:31;;;;;;;7.50;2.17;;;15.80;99.90;;;;;;5041393;28;20206;-77
2022/07/10 02:46:00;;;;;;;2.60;1.50;;;15.80;99.90;;;;;;5041808;28;20244;-79
2022/07/10 02:48:25;;;;;;;5.17;1.80;;;15.70;99.90;;;;;;5041336;28;20207;-78
2022/07/10 02:50:52;;;;;;;3.83;2.10;;;15.60;99.90;;;;;;5040255;28;20480;-78
2022/07/10 02:53:17;;;;;;;3.13;1.40;;;15.60;99.90;;;;;;5040192;28;20202;-78
2022/07/10 02:55:43;;;;;;;5.50;2.20;;;15.60;99.90;;;;;;5044486;28;20422;-77
2022/07/10 02:58:09;;;;;;;3.97;1.87;;;15.60;99.90;;;;;;5044566;28;20192;-78
2022/07/10 03:00:36;;;;;;;6.43;2.53;;;15.50;99.90;;;;;;5043001;28;20524;-77
2022/07/10 03:03:02;;;;;;;6.37;2.50;;;15.60;99.90;;;;;;5043605;28;20643;-78
2022/07/10 03:05:28;;;;;;;9.90;2.10;;;15.60;99.90;;;;;;5042335;28;20422;-78
2022/07/10 03:07:54;;;;;;;7.37;1.80;;;15.60;99.90;;;;;;5043843;28;20195;-77
2022/07/10 03:10:20;;;;;;;4.60;1.90;;;15.60;99.90;;;;;;5046388;28;20469;-78
2022/07/10 03:12:46;;;;;;;4.77;1.97;;;15.70;99.90;;;;;;5046422;28;20929;-78
2022/07/10 03:15:13;;;;;;;5.73;2.83;;;15.70;99.90;;;;;;5030440;28;20207;-79
2022/07/10 03:17:39;;;;;;;3.93;1.77;;;15.70;99.90;;;;;;5045830;28;20960;-79
2022/07/10 03:20:06;;;;;;;8.20;2.20;;;15.80;99.90;;;;;;5045594;28;20437;-79
2022/07/10 03:22:32;;;;;;;4.13;1.80;;;15.80;99.90;;;;;;5046281;28;20258;-78
2022/07/10 03:24:58;;;;;;;3.50;1.90;;;15.80;99.90;;;;;;5045501;28;20438;-78
2022/07/10 03:27:24;;;;;;;4.23;1.60;;;15.80;99.90;;;;;;5045468;28;20442;-78
2022/07/10 03:29:50;;;;;;;3.23;1.47;;;15.70;99.90;;;;;;5044268;28;20470;-78
2022/07/10 03:32:16;;;;;;;4.80;1.90;;;15.70;99.90;;;;;;5045499;28;20242;-77
2022/07/10 03:34:42;;;;;;;3.57;1.80;;;15.70;99.90;;;;;;5044663;28;20190;-78
2022/07/10 03:37:08;;;;;;;4.23;1.70;;;15.70;99.90;;;;;;5044334;28;20196;-78
2022/07/10 03:39:34;;;;;;;5.23;2.40;;;15.70;99.90;;;;;;5043949;28;20940;-79
2022/07/10 03:42:00;;;;;;;3.70;1.73;;;15.70;99.90;;;;;;5044701;28;20433;-78
2022/07/10 03:44:26;;;;;;;3.80;1.53;;;15.70;99.90;;;;;;5044048;28;20180;-78
2022/07/10 03:46:51;;;;;;;7.07;1.87;;;15.80;99.90;;;;;;5043841;28;20426;-78
2022/07/10 03:49:17;;;;;;;5.67;2.30;;;15.80;99.90;;;;;;5043221;28;20473;-78
2022/07/10 03:51:43;;;;;;;4.13;1.60;;;15.80;99.90;;;;;;5043530;28;20183;-78
2022/07/10 03:54:09;;;;;;;3.70;1.57;;;15.80;99.90;;;;;;5043049;28;20647;-78
2022/07/10 03:59:30;;;;;;;5.43;1.87;;;15.80;99.90;;;;;;5006164;28;20198;-78
2022/07/10 04:01:56;;;;;;;4.30;2.57;;;15.70;99.90;;;;;;5050095;22;20567;-78
2022/07/10 04:04:21;;;;;;;4.40;1.63;;;15.60;99.90;;;;;;5016693;28;20187;-78
2022/07/10 04:06:47;;;;;;;3.77;1.63;;;15.60;99.90;;;;;;5016471;28;20176;-78
2022/07/10 04:09:13;;;;;;;4.53;1.70;;;15.60;99.90;;;;;;5016645;28;20635;-78
2022/07/10 04:11:38;;;;;;;3.60;1.63;;;15.60;99.90;;;;;;5016904;28;20556;-78
2022/07/10 04:14:04;;;;;;;5.50;1.80;;;15.50;99.90;;;;;;5016656;28;20191;-78
2022/07/10 04:16:30;;;;;;;3.27;1.67;;;15.50;99.90;;;;;;5016700;28;20177;-78
2022/07/10 04:18:56;;;;;;;5.17;2.20;;;15.50;99.90;;;;;;5016352;28;20220;-78
2022/07/10 04:21:21;;;;;;;7.23;1.70;;;15.50;99.90;;;;;;5016939;28;20176;-78
2022/07/10 04:23:47;;;;;;;6.87;2.50;;;15.50;99.90;;;;;;5016432;28;20180;-78
2022/07/10 04:26:13;;;;;;;4.07;2.00;;;15.50;99.90;;;;;;5016258;28;20272;-78
2022/07/10 04:28:39;;;;;;;8.93;1.67;;;15.40;99.90;;;;;;5016332;28;20675;-78
2022/07/10 04:31:05;;;;;;;2.97;1.80;;;15.40;99.90;;;;;;5016382;28;20247;-78
2022/07/10 04:33:30;;;;;;;4.17;2.00;;;15.50;99.90;;;;;;5016146;28;20238;-78
2022/07/10 04:35:56;;;;;;;6.00;2.10;;;15.50;99.90;;;;;;5016087;28;20419;-78
2022/07/10 04:38:22;;;;;;;5.53;2.03;;;15.60;99.90;;;;;;5016050;28;20296;-78
2022/07/10 04:40:47;;;;;;;5.30;2.20;;;15.60;99.90;;;;;;5016172;28;20181;-78
2022/07/10 04:43:13;;;;;;;8.70;2.17;;;15.60;99.90;;;;;;5016061;28;20184;-78
2022/07/10 04:45:39;;;;;;;4.80;2.00;;;15.70;99.90;;;;;;5015849;28;20195;-78
2022/07/10 04:48:05;;;;;;;3.77;2.17;;;15.70;99.90;;;;;;5015811;28;20207;-78
2022/07/10 04:50:31;;;;;;;7.77;2.23;;;15.70;99.90;;;;;;5015938;28;20577;-78
2022/07/10 04:52:57;;;;;;;5.07;2.00;;;15.80;99.90;;;;;;5016056;28;20414;-78
2022/07/10 04:55:23;;;;;;;4.43;2.13;;;15.80;99.90;;;;;;5015859;28;20931;-78
2022/07/10 04:57:49;;;;;;;3.00;1.80;;;15.90;99.90;;;;;;5015591;28;20450;-78
2022/07/10 05:00:16;;;;;;;4.40;2.00;;;16.10;99.90;;;;;;5015755;28;20933;-78
2022/07/10 05:02:42;;;;;;;3.33;1.90;;;16.10;99.90;;;;;;5015535;28;20454;-79
2022/07/10 05:05:08;;;;;;;7.70;2.93;;;16.20;99.90;;;;;;5015975;28;20942;-78
2022/07/10 05:07:34;;;;;;;8.93;2.60;;;16.30;99.90;;;;;;5015414;28;20575;-79
2022/07/10 05:09:59;;;;;;;7.33;2.50;;;16.30;99.90;;;;;;5015510;28;20550;-78
2022/07/10 05:12:26;;;;;;;3.73;1.97;;;16.30;99.90;;;;;;5015655;28;20271;-78
2022/07/10 05:14:52;;;;;;;6.53;2.73;;;16.40;99.90;;;;;;5015499;28;20632;-78
2022/07/10 05:17:21;;;;;;;5.23;2.30;;;16.40;99.90;;;;;;5015021;28;20442;-78
2022/07/10 05:19:46;;;;;;;3.63;1.73;;;16.40;99.90;;;;;;5015540;28;20427;-78
2022/07/10 05:22:12;;;;;;;5.77;2.23;;;16.50;99.90;;;;;;5015404;28;20415;-78
2022/07/10 05:24:38;;;;;;;3.97;2.27;;;16.50;99.90;;;;;;5015627;28;20647;-78
2022/07/10 05:27:04;;;;;;;11.23;2.37;;;16.50;99.90;;;;;;5024628;28;20264;-78
2022/07/10 05:29:30;;;;;;;4.80;1.80;;;16.60;99.90;;;;;;5015652;28;20204;-78
2022/07/10 05:31:55;;;;;;;4.60;2.30;;;16.70;99.90;;;;;;5014709;28;20426;-78
2022/07/10 05:34:21;;;;;;;4.60;2.00;;;16.60;99.90;;;;;;5015042;28;20183;-78
2022/07/10 05:36:47;;;;;;;4.00;2.10;;;16.70;99.90;;;;;;5014781;28;20180;-78
2022/07/10 05:39:12;;;;;;;8.53;2.47;;;16.70;99.90;;;;;;5015037;28;20176;-78
2022/07/10 05:41:38;;;;;;;4.67;2.00;;;16.80;99.90;;;;;;5015170;28;20182;-78
2022/07/10 05:44:04;;;;;;;7.93;3.93;;;16.90;99.90;;;;;;5014918;28;20214;-78
2022/07/10 05:46:30;;;;;;;3.77;1.73;;;17.00;99.90;;;;;;5014729;28;20528;-78
2022/07/10 05:48:56;;;;;;;4.37;2.97;;;17.00;99.90;;;;;;5015022;28;20867;-78
2022/07/10 05:51:21;;;;;;;3.93;1.80;;;17.00;99.90;;;;;;5014700;28;20239;-78
2022/07/10 05:53:47;;;;;;;6.90;2.47;;;17.00;99.90;;;;;;5014904;28;20272;-78
2022/07/10 05:56:14;;;;;;;4.70;2.00;;;17.00;99.90;;;;;;5014625;28;20176;-78
2022/07/10 05:58:39;;;;;;;3.80;1.70;;;17.20;99.90;;;;;;5014803;28;20210;-78
2022/07/10 06:01:05;;;;;;;5.77;2.03;;;17.40;99.90;;;;;;5014581;28;20423;-78
2022/07/10 06:03:31;;;;;;;5.27;1.80;;;17.60;99.90;;;;;;5014697;28;20203;-78
2022/07/10 06:05:59;;;;;;;4.90;1.60;;;17.90;99.90;;;;;;5014422;28;20459;-79
2022/07/10 06:08:25;;;;;;;7.37;2.30;;;18.00;99.90;;;;;;5014534;28;20247;-79
2022/07/10 06:10:51;;;;;;;4.20;1.70;;;18.20;99.90;;;;;;5014494;28;20498;-78
2022/07/10 06:13:16;;;;;;;5.87;1.77;;;18.20;99.90;;;;;;5014539;28;20544;-78
2022/07/10 06:15:42;;;;;;;5.40;1.70;;;18.20;99.90;;;;;;5014066;28;20797;-78
2022/07/10 06:18:08;;;;;;;3.63;1.53;;;18.10;99.90;;;;;;5014374;28;20629;-78
2022/07/10 06:20:34;;;;;;;5.93;2.07;;;17.70;99.90;;;;;;5014430;28;20219;-78
2022/07/10 06:23:00;;;;;;;3.57;1.80;;;17.60;99.90;;;;;;5014507;28;20191;-78
2022/07/10 06:25:25;;;;;;;3.57;1.83;;;17.60;99.90;;;;;;5014256;28;20180;-78
2022/07/10 06:27:51;;;;;;;4.33;1.73;;;17.60;99.90;;;;;;5014002;28;20234;-78
2022/07/10 06:30:17;;;;;;;8.00;2.00;;;17.50;99.90;;;;;;5014195;28;20223;-78
2022/07/10 06:32:44;;;;;;;5.90;2.57;;;17.60;99.90;;;;;;5014239;28;20643;-78
2022/07/10 06:35:10;;;;;;;3.07;1.43;;;17.60;99.90;;;;;;5014240;28;20195;-79
2022/07/10 06:37:36;;;;;;;3.27;1.70;;;17.70;99.90;;;;;;5013949;28;20435;-78
2022/07/10 06:40:02;;;;;;;5.83;2.00;;;17.80;99.90;;;;;;5014166;28;20427;-78
2022/07/10 06:42:28;;;;;;;3.87;2.07;;;17.90;99.90;;;;;;5014037;28;20424;-78
2022/07/10 06:44:54;;;;;;;3.53;1.80;;;18.10;99.90;;;;;;5014036;28;20852;-79
2022/07/10 06:50:09;;;;;;;5.50;2.03;;;18.30;99.90;;;;;;5031929;28;20214;-78
2022/07/10 06:52:35;;;;;;;4.80;2.03;;;18.30;99.90;;;;;;5014139;28;20419;-78
2022/07/10 06:55:02;;;;;;;3.57;1.77;;;18.20;99.90;;;;;;5013952;28;20411;-78
2022/07/10 06:57:28;;;;;;;5.93;1.77;;;18.20;99.90;;;;;;5013725;28;20808;-78
2022/07/10 06:59:54;;;;;;;6.00;2.27;;;18.30;99.90;;;;;;5014073;28;20426;-78
2022/07/10 07:02:20;;;;;;;5.03;2.10;;;18.30;99.90;;;;;;5013820;28;20443;-78
2022/07/10 07:04:46;;;;;;;4.13;2.20;;;18.20;99.90;;;;;;5013997;28;20184;-78
2022/07/10 07:07:15;;;;;;;5.23;1.63;;;18.10;99.90;;;;;;5013506;28;20453;-78
2022/07/10 07:09:42;;;;;;;2.60;1.33;;;18.10;99.90;;;;;;5013759;28;20208;-78
2022/07/10 07:12:08;;;;;;;2.70;1.63;;;18.10;99.90;;;;;;5013780;28;20781;-79
2022/07/10 07:14:35;;;;;;;5.30;1.80;;;18.10;99.90;;;;;;5013844;28;20415;-78
2022/07/10 07:17:06;;;;;;;4.10;2.03;;;18.10;99.90;;;;;;5013299;28;20435;-78
2022/07/10 07:23:09;;;;;;;3.40;1.37;;;18.10;99.90;;;;;;5013878;28;20843;-78
2022/07/10 07:25:08;;;;;;;5.70;1.87;;;18.20;99.90;;;;;;5031570;28;20545;-78
2022/07/10 07:27:36;;;;;;;5.10;1.60;;;18.20;99.90;;;;;;5013530;28;20443;-78
2022/07/10 07:30:04;;;;;;;3.80;1.90;;;18.30;99.90;;;;;;5013657;28;20466;-78
2022/07/10 07:32:30;;;;;;;5.13;1.90;;;18.50;99.90;;;;;;5013484;28;20422;-78
2022/07/10 07:34:56;;;;;;;4.47;1.60;;;18.60;99.90;;;;;;5013688;28;20423;-78
2022/07/10 07:37:21;;;;;;;5.10;2.27;;;18.60;99.90;;;;;;5013201;28;20942;-78
2022/07/10 07:39:47;;;;;;;7.17;1.97;;;18.70;99.90;;;;;;5013680;28;20181;-78
2022/07/10 07:42:13;;;;;;;3.67;2.03;;;18.70;99.90;;;;;;5013504;28;20234;-78
2022/07/10 07:44:39;;;;;;;3.80;1.57;;;18.80;99.90;;;;;;5013523;28;20181;-78
2022/07/10 07:47:04;;;;;;;3.97;2.10;;;18.70;99.90;;;;;;5013021;28;20287;-78
2022/07/10 07:49:30;;;;;;;5.87;1.57;;;18.70;99.90;;;;;;5013429;28;20191;-78
2022/07/10 07:51:56;;;;;;;9.93;1.97;;;18.80;99.90;;;;;;5013442;28;20215;-78
2022/07/10 07:54:21;;;;;;;3.77;2.33;;;18.60;99.90;;;;;;5014555;28;20226;-78
2022/07/10 07:56:47;;;;;;;5.43;2.47;;;18.70;99.90;;;;;;5016706;28;20188;-79
2022/07/10 07:59:13;;;;;;;4.60;1.87;;;18.80;99.90;;;;;;5017220;28;20183;-78
2022/07/10 08:01:39;;;;;;;3.90;1.80;;;18.90;99.90;;;;;;5016754;28;20219;-78
2022/07/10 08:04:05;;;;;;;3.83;1.70;;;19.00;99.90;;;;;;5017060;28;20180;-78
2022/07/10 08:06:30;;;;;;;3.30;1.63;;;19.00;99.90;;;;;;5016544;28;20422;-78
2022/07/10 08:08:56;;;;;;;3.70;1.70;;;19.00;99.90;;;;;;5016904;28;20212;-78
2022/07/10 08:11:22;;;;;;;4.10;1.40;;;18.90;99.90;;;;;;5016726;28;20294;-78
2022/07/10 08:13:48;;;;;;;5.37;1.70;;;19.00;99.90;;;;;;5016798;28;20177;-79
2022/07/10 08:16:14;;;;;;;9.20;3.30;;;18.90;99.90;;;;;;5016419;28;20415;-78
2022/07/10 08:18:40;;;;;;;3.80;1.90;;;19.00;99.90;;;;;;5016474;28;20442;-78
2022/07/10 08:21:05;;;;;;;2.47;1.47;;;18.90;99.90;;;;;;5016669;28;20632;-78
2022/07/10 08:23:32;;;;;;;4.10;2.33;;;18.70;99.90;;;;;;5016620;28;20188;-78
2022/07/10 08:25:58;;;;;;;8.00;1.90;;;18.60;99.90;;;;;;5016200;28;20267;-78
2022/07/10 08:28:23;;;;;;;5.50;2.03;;;18.80;99.90;;;;;;5016379;28;20530;-78
2022/07/10 08:30:49;;;;;;;4.97;1.50;;;19.10;99.90;;;;;;5016371;28;20232;-78
2022/07/10 08:33:15;;;;;;;6.83;2.10;;;19.80;99.90;;;;;;5016321;28;20180;-78
2022/07/10 08:35:41;;;;;;;7.37;2.10;;;20.30;99.90;;;;;;5016326;28;20180;-78
2022/07/10 08:38:08;;;;;;;3.70;1.67;;;21.30;99.90;;;;;;5016287;28;20196;-78
2022/07/10 08:40:37;;;;;;;3.10;1.57;;;21.80;99.90;;;;;;5016357;28;20215;-78
2022/07/10 08:43:03;;;;;;;3.30;2.50;;;22.00;99.90;;;;;;5016422;28;20886;-78
2022/07/10 08:45:33;;;;;;;4.50;1.63;;;22.30;99.90;;;;;;5016134;28;20496;-78
2022/07/10 08:48:04;;;;;;;2.53;1.27;;;22.10;99.90;;;;;;5016000;28;20439;-78
2022/07/10 08:50:33;;;;;;;4.00;1.60;;;21.80;99.90;;;;;;5016055;28;20466;-78
2022/07/10 08:53:09;;;;;;;4.53;1.70;;;21.30;99.90;;;;;;5016132;28;20415;-79
2022/07/10 08:55:36;;;;;;;4.10;1.43;;;21.00;99.90;;;;;;5015913;28;20473;-78
2022/07/10 08:58:04;;;;;;;8.40;2.13;;;20.90;99.90;;;;;;5015850;28;20431;-78
2022/07/10 09:00:30;;;;;;;3.23;1.77;;;20.70;99.90;;;;;;5016009;28;20800;-78
2022/07/10 09:02:56;;;;;;;3.37;1.60;;;20.60;99.90;;;;;;5015868;28;20485;-78
2022/07/10 09:05:24;;;;;;;4.37;2.00;;;20.60;99.90;;;;;;5015317;28;20459;-78
2022/07/10 09:07:50;;;;;;;6.30;1.50;;;20.50;99.90;;;;;;5015248;28;21064;-78
2022/07/10 09:10:19;;;;;;;5.20;1.67;;;20.50;99.90;;;;;;5015803;28;20487;-78
2022/07/10 09:12:59;;;;;;;4.57;1.53;;;20.40;99.90;;;;;;5015558;28;20930;-78
2022/07/10 09:15:28;;;;;;;3.23;1.70;;;20.30;99.90;;;;;;5015772;28;20484;-78
2022/07/10 09:18:00;;;;;;;7.97;1.93;;;20.30;99.90;;;;;;5015330;28;20442;-78
2022/07/10 09:20:40;;;;;;;3.60;1.63;;;20.30;99.90;;;;;;5015675;28;20427;-78
2022/07/10 09:23:25;;;;;;;3.83;1.20;;;20.40;99.90;;;;;;5015474;28;20431;-78
2022/07/10 09:25:53;;;;;;;4.20;1.93;;;20.50;99.90;;;;;;5015580;28;20437;-78
2022/07/10 09:28:21;;;;;;;3.07;1.20;;;21.20;99.90;;;;;;5015390;28;20960;-78
2022/07/10 09:30:47;;;;;;;5.27;2.00;;;22.00;99.90;;;;;;5015514;28;20463;-78
2022/07/10 09:33:29;;;;;;;6.33;1.70;;;23.20;99.90;;;;;;5015546;28;20462;-78
2022/07/10 09:36:05;;;;;;;3.53;2.33;;;23.50;99.90;;;;;;5015854;28;20419;-77
2022/07/10 09:38:40;;;;;;;5.17;1.60;;;23.70;99.90;;;;;;5015619;28;20441;-78
2022/07/10 09:41:21;;;;;;;4.20;2.00;;;23.60;99.90;;;;;;5015449;28;20430;-78
2022/07/10 09:43:47;;;;;;;3.63;1.60;;;23.20;99.90;;;;;;5015273;28;20423;-78
2022/07/10 09:46:17;;;;;;;3.27;1.53;;;23.10;99.90;;;;;;5014965;28;20423;-78
2022/07/10 09:48:43;;;;;;;5.07;1.60;;;22.60;99.90;;;;;;5015005;28;20786;-77
2022/07/10 09:51:10;;;;;;;5.13;1.93;;;22.20;99.90;;;;;;5015021;28;20847;-78
2022/07/10 09:53:44;;;;;;;3.53;1.60;;;21.90;99.90;;;;;;5014992;28;20450;-78
2022/07/10 09:56:13;;;;;;;4.00;2.37;;;21.40;99.90;;;;;;5014886;28;20430;-78
2022/07/10 09:58:40;;;;;;;4.90;1.80;;;20.90;99.90;;;;;;5014824;28;20431;-78
2022/07/10 10:01:07;;;;;;;4.80;2.17;;;20.40;99.90;;;;;;5014946;28;20936;-78
2022/07/10 10:03:35;;;;;;;6.10;2.03;;;20.10;99.90;;;;;;5035770;23;20489;-80
2022/07/10 10:06:13;;;;;;;5.37;1.90;;;20.10;99.90;;;;;;5039110;28;20423;-76
2022/07/10 10:09:08;;;;;;;5.20;1.90;;;20.10;99.90;;;;;;5038528;28;20466;-79
2022/07/10 10:11:36;;;;;;;4.13;2.30;;;20.10;99.90;;;;;;5055179;28;20496;-79
2022/07/10 10:14:03;;;;;;;5.23;1.83;;;20.00;99.90;;;;;;5054598;28;20433;-79
2022/07/10 10:16:30;;;;;;;3.60;1.87;;;20.00;99.90;;;;;;5054562;28;20481;-79
2022/07/10 10:21:41;;;;;;;6.73;2.70;;;19.80;99.90;;;;;;5057446;28;20431;-78
2022/07/10 10:24:07;;;;;;;6.07;2.47;;;19.80;99.90;;;;;;5054492;28;20513;-78
2022/07/10 10:26:33;;;;;;;4.50;2.40;;;20.00;99.90;;;;;;5055090;28;20266;-77
2022/07/10 10:29:01;;;;;;;3.23;1.70;;;20.80;99.90;;;;;;5054009;28;20444;-77
2022/07/10 10:31:31;;;;;;;5.43;2.73;;;23.30;99.90;;;;;;5054110;28;20562;-79
2022/07/10 10:33:57;;;;;;;4.30;1.90;;;23.90;99.90;;;;;;5054223;28;20502;-79
2022/07/10 10:36:54;;;;;;;5.70;1.53;;;23.90;99.90;;;;;;5054934;28;20410;-78
2022/07/10 10:39:21;;;;;;;3.50;1.60;;;24.70;99.90;;;;;;5054374;28;20410;-77
2022/07/10 10:41:54;;;;;;;2.77;2.00;;;25.60;99.90;;;;;;5053338;28;20424;-78
2022/07/10 10:44:31;;;;;;;6.93;1.43;;;25.70;99.90;;;;;;5053505;28;20495;-78
2022/07/10 10:47:05;;;;;;;2.57;1.50;;;25.30;99.90;;;;;;5053809;28;20426;-78
2022/07/10 10:50:06;;;;;;;3.20;1.63;;;24.90;99.90;;;;;;5053540;28;20440;-77
2022/07/10 10:52:32;;;;;;;4.50;1.90;;;24.20;99.90;;;;;;4992852;28;20515;-77
2022/07/10 10:54:59;;;;;;;2.83;1.50;;;23.20;99.90;;;;;;5040961;28;20423;-78
2022/07/10 10:57:31;;;;;;;3.10;1.80;;;22.90;99.90;;;;;;5053943;28;20204;-78
2022/07/10 10:59:59;;;;;;;4.33;1.70;;;22.60;99.90;;;;;;5052753;28;20426;-77
2022/07/10 11:02:29;;;;;;;4.13;1.90;;;22.60;99.90;;;;;;5052479;28;20795;-77
2022/07/10 11:05:11;;;;;;;3.13;1.90;;;22.80;99.90;;;;;;5053053;28;20450;-79
2022/07/10 11:07:55;;;;;;;2.63;1.70;;;22.80;99.90;;;;;;5052927;28;20987;-78
2022/07/10 11:10:43;;;;;;;2.70;1.50;;;22.50;99.90;;;;;;5052912;28;20976;-78
2022/07/10 11:13:16;;;;;;;3.40;1.67;;;22.30;99.90;;;;;;5052392;28;20421;-77
2022/07/10 11:15:52;;;;;;;2.70;1.30;;;22.00;99.90;;;;;;5052338;28;20851;-77
2022/07/10 11:18:22;;;;;;;3.13;1.77;;;21.80;99.90;;;;;;5052487;28;20442;-78
2022/07/10 11:20:49;;;;;;;3.00;2.00;;;21.50;99.90;;;;;;5052131;28;20449;-77
2022/07/10 11:23:51;;;;;;;3.23;2.07;;;21.10;99.90;;;;;;5051772;28;20433;-78
2022/07/10 11:26:34;;;;;;;5.23;2.20;;;20.90;99.90;;;;;;5052839;28;20433;-78
2022/07/10 11:29:07;;;;;;;3.37;1.90;;;20.70;99.90;;;;;;5052344;28;20464;-78
2022/07/10 11:31:44;;;;;;;3.33;1.87;;;20.60;99.90;;;;;;5055909;28;20480;-77
2022/07/10 11:34:10;;;;;;;4.40;2.13;;;20.50;99.90;;;;;;5055983;28;20832;-78
2022/07/10 11:36:39;;;;;;;2.87;1.70;;;20.50;99.90;;;;;;5055862;28;20479;-77
2022/07/10 11:39:08;;;;;;;2.80;1.80;;;20.60;99.90;;;;;;5055200;28;20807;-78
2022/07/10 11:41:45;;;;;;;5.03;1.80;;;20.50;99.90;;;;;;5055113;28;20433;-77
2022/07/10 11:44:16;;;;;;;2.50;1.40;;;20.50;99.90;;;;;;5055579;28;20581;-77
2022/07/10 11:46:44;;;;;;;2.60;1.27;;;20.40;99.90;;;;;;5054764;28;20462;-77
2022/07/10 11:49:11;;;;;;;2.80;1.70;;;20.40;99.90;;;;;;5056379;28;20999;-77
2022/07/10 11:51:40;;;;;;;8.10;2.13;;;20.40;99.90;;;;;;5060879;28;20835;-78
2022/07/10 11:54:15;;;;;;;2.63;1.73;;;20.40;99.90;;;;;;5058918;28;20414;-77
2022/07/10 11:56:46;;;;;;;2.67;1.53;;;20.40;99.90;;;;;;5057972;28;21000;-78
2022/07/10 11:59:13;;;;;;;3.50;1.70;;;20.50;99.90;;;;;;5040609;28;20935;-77
2022/07/10 12:01:50;;;;;;;3.27;1.40;;;20.50;99.90;;;;;;5058859;28;20429;-78
2022/07/10 12:04:19;;;;;;;3.20;1.63;;;20.60;99.90;;;;;;5057691;28;20441;-79
2022/07/10 12:06:46;;;;;;;2.80;1.67;;;20.50;99.90;;;;;;5057785;28;20437;-78
2022/07/10 12:09:19;;;;;;;2.77;1.70;;;20.40;99.90;;;;;;5058964;28;20850;-78
2022/07/10 12:12:02;;;;;;;2.80;1.90;;;20.30;99.90;;;;;;5041805;28;20470;-78
2022/07/10 12:14:28;;;;;;;3.20;1.80;;;20.00;99.90;;;;;;5057980;28;20419;-78
2022/07/10 12:16:55;;;;;;;3.80;2.07;;;19.80;99.90;;;;;;5059994;28;20438;-78
2022/07/10 12:19:36;;;;;;;5.47;2.30;;;19.60;99.90;;;;;;5061245;28;20494;-78
2022/07/10 12:22:04;;;;;;;4.00;2.07;;;19.50;99.90;;;;;;5060613;28;20839;-78
2022/07/10 12:24:30;;;;;;;3.43;2.10;;;19.40;99.90;;;;;;5060843;28;20414;-78
2022/07/10 12:26:56;;;;;;;4.10;1.93;;;19.60;99.90;;;;;;5060244;28;20429;-79
2022/07/10 12:29:30;;;;;;;4.30;2.03;;;19.90;99.90;;;;;;5060718;28;20414;-78
2022/07/10 12:32:01;;;;;;;2.93;1.87;;;20.10;99.90;;;;;;5060723;28;20426;-78
2022/07/10 12:34:46;;;;;;;3.77;1.60;;;20.40;99.90;;;;;;5044550;28;20796;-79
2022/07/10 12:37:13;;;;;;;3.63;1.50;;;20.50;99.90;;;;;;5059066;28;20430;-79
2022/07/10 12:39:52;;;;;;;5.93;2.20;;;20.80;99.90;;;;;;5059147;28;20422;-79
2022/07/10 12:42:31;;;;;;;3.33;2.20;;;20.80;99.90;;;;;;5058722;28;20418;-79
2022/07/10 12:45:13;;;;;;;5.83;2.40;;;20.80;99.90;;;;;;5057005;28;20440;-77
2022/07/10 12:47:47;;;;;;;4.10;2.20;;;20.60;99.90;;;;;;5057919;28;20917;-77
2022/07/10 12:50:14;;;;;;;5.77;2.07;;;20.60;99.90;;;;;;5058313;28;20473;-78
2022/07/10 12:52:40;;;;;;;4.57;2.03;;;20.80;99.90;;;;;;5058399;28;20418;-78
2022/07/10 12:55:18;;;;;;;5.07;2.13;;;20.90;99.90;;;;;;5041609;28;20921;-79
2022/07/10 12:57:55;;;;;;;3.20;2.10;;;21.00;99.90;;;;;;5041437;28;20448;-78
2022/07/10 13:00:30;;;;;;;4.53;1.60;;;20.80;99.90;;;;;;5057239;28;20433;-78
2022/07/10 13:03:00;;;;;;;6.73;2.27;;;20.90;99.90;;;;;;5057845;28;20462;-78
2022/07/10 13:05:30;;;;;;;3.53;2.13;;;21.00;99.90;;;;;;5057859;28;20496;-78
2022/07/10 13:08:15;;;;;;;2.90;1.97;;;21.20;99.90;;;;;;5057378;28;20814;-77